createdAt,value
2022-08-17T00:01:51.768Z,20.07
2022-08-17T00:04:20.034Z,20.04
2022-08-17T00:06:54.191Z,20.03
2022-08-17T00:09:26.771Z,20.00
2022-08-17T00:12:40.631Z,19.94
2022-08-17T00:14:35.239Z,19.88
2022-08-17T00:17:08.364Z,19.85
2022-08-17T00:19:41.183Z,19.85
2022-08-17T00:22:32.472Z,19.84
2022-08-17T00:24:47.804Z,19.80
2022-08-17T00:27:20.695Z,19.74
2022-08-17T00:29:53.509Z,19.69
2022-08-17T00:33:15.478Z,19.65
2022-08-17T00:35:01.212Z,19.65
2022-08-17T00:37:34.351Z,19.64
2022-08-17T00:40:09.850Z,19.64
2022-08-17T00:42:43.478Z,19.61
2022-08-17T00:45:18.003Z,19.59
2022-08-17T00:47:52.577Z,19.56
2022-08-17T00:50:26.238Z,19.55
2022-08-17T00:52:59.381Z,19.54
2022-08-17T00:55:32.931Z,19.52
2022-08-17T00:58:06.418Z,19.51
2022-08-17T01:00:42.543Z,19.49
2022-08-17T01:03:21.213Z,19.48
2022-08-17T01:05:57.089Z,19.45
2022-08-17T01:08:32.116Z,19.43
2022-08-17T01:11:05.426Z,19.41
2022-08-17T01:13:41.988Z,19.39
2022-08-17T01:16:25.904Z,19.37
2022-08-17T01:19:02.422Z,19.37
2022-08-17T01:21:46.897Z,19.37
2022-08-17T01:24:19.727Z,19.36
2022-08-17T01:26:52.105Z,19.35
2022-08-17T01:29:24.845Z,19.32
2022-08-17T01:32:00.911Z,19.32
2022-08-17T01:34:39.880Z,19.32
2022-08-17T01:37:07.368Z,19.31
2022-08-17T01:39:53.242Z,19.27
2022-08-17T01:42:52.168Z,19.24
2022-08-17T01:45:34.221Z,19.22
2022-08-17T01:48:07.134Z,19.21
2022-08-17T01:50:41.993Z,19.21
2022-08-17T01:53:22.203Z,19.19
2022-08-17T01:55:58.306Z,19.19
2022-08-17T01:58:30.786Z,19.21
2022-08-17T02:01:03.345Z,19.21
2022-08-17T02:03:36.559Z,19.22
2022-08-17T02:06:27.015Z,19.24
2022-08-17T02:09:01.629Z,19.26
2022-08-17T02:11:20.514Z,19.28
2022-08-17T02:14:02.449Z,19.28
2022-08-17T02:16:29.659Z,19.28
2022-08-17T02:19:03.833Z,19.29
2022-08-17T02:21:37.812Z,19.28
2022-08-17T02:24:13.423Z,19.25
2022-08-17T02:26:47.063Z,19.24
2022-08-17T02:29:20.695Z,19.22
2022-08-17T02:31:53.215Z,19.24
2022-08-17T02:34:27.709Z,19.23
2022-08-17T02:37:00.119Z,19.21
2022-08-17T02:39:32.866Z,19.20
2022-08-17T02:42:06.688Z,19.16
2022-08-17T02:44:40.262Z,19.14
2022-08-17T02:47:13.971Z,19.14
2022-08-17T02:49:55.373Z,19.13
2022-08-17T02:52:43.038Z,19.11
2022-08-17T02:54:56.242Z,19.09
2022-08-17T02:57:28.783Z,19.11
2022-08-17T03:00:01.159Z,19.11
2022-08-17T03:02:40.598Z,19.12
2022-08-17T03:05:14.835Z,19.12
2022-08-17T03:07:47.572Z,19.12
2022-08-17T03:10:22.982Z,19.16
2022-08-17T03:12:55.832Z,19.20
2022-08-17T03:15:31.594Z,19.25
2022-08-17T03:18:05.489Z,19.30
2022-08-17T03:20:39.638Z,19.32
2022-08-17T03:23:12.037Z,19.33
2022-08-17T03:25:46.140Z,19.37
2022-08-17T03:28:18.597Z,19.45
2022-08-17T03:30:51.702Z,19.47
2022-08-17T03:33:24.350Z,19.49
2022-08-17T03:35:56.893Z,19.52
2022-08-17T03:38:39.230Z,19.58
2022-08-17T03:41:06.800Z,19.65
2022-08-17T03:43:38.551Z,19.68
2022-08-17T03:46:35.047Z,19.68
2022-08-17T03:49:22.298Z,19.68
2022-08-17T03:52:14.196Z,19.67
2022-08-17T03:55:04.605Z,19.66
2022-08-17T03:57:37.248Z,19.66
2022-08-17T04:00:10.934Z,19.66
2022-08-17T04:02:46.675Z,19.66
2022-08-17T04:05:19.338Z,19.65
2022-08-17T04:07:53.471Z,19.66
2022-08-17T04:10:27.870Z,19.69
2022-08-17T04:13:02.620Z,19.72
2022-08-17T04:15:35.688Z,19.76
2022-08-17T04:18:10.919Z,19.80
2022-08-17T04:20:42.853Z,19.86
2022-08-17T04:23:18.983Z,19.98
2022-08-17T04:25:53.380Z,20.11
2022-08-17T04:28:26.192Z,20.27
2022-08-17T04:30:59.147Z,20.42
2022-08-17T04:33:31.716Z,20.53
2022-08-17T04:36:05.617Z,20.62
2022-08-17T04:38:41.403Z,20.74
2022-08-17T04:41:32.633Z,20.89
2022-08-17T04:44:06.811Z,21.01
2022-08-17T04:46:39.458Z,21.15
2022-08-17T04:49:14.936Z,21.25
2022-08-17T04:51:56.825Z,21.34
2022-08-17T04:54:23.476Z,21.41
2022-08-17T04:56:56.869Z,21.47
2022-08-17T04:59:30.478Z,21.56
2022-08-17T05:02:02.876Z,21.69
2022-08-17T05:04:35.618Z,21.82
2022-08-17T05:07:08.096Z,21.98
2022-08-17T05:09:41.094Z,22.12
2022-08-17T05:12:14.231Z,22.28
2022-08-17T05:14:46.796Z,22.37
2022-08-17T05:17:19.438Z,22.48
2022-08-17T05:19:52.174Z,22.59
2022-08-17T05:22:25.714Z,22.66
2022-08-17T05:24:59.320Z,22.72
2022-08-17T05:27:35.943Z,22.83
2022-08-17T05:30:09.884Z,22.97
2022-08-17T05:32:55.715Z,23.08
2022-08-17T05:35:30.093Z,23.14
2022-08-17T05:38:02.440Z,23.14
2022-08-17T05:40:36.549Z,23.22
2022-08-17T05:43:18.260Z,23.36
2022-08-17T05:46:22.333Z,23.50
2022-08-17T05:49:10.061Z,23.54
2022-08-17T05:52:20.032Z,23.60
2022-08-17T05:55:16.727Z,23.76
2022-08-17T06:01:22.255Z,24.14
2022-08-17T06:04:05.327Z,24.36
2022-08-17T06:06:44.985Z,24.56
2022-08-17T06:09:34.415Z,24.74
2022-08-17T06:12:36.231Z,24.88
2022-08-17T06:15:34.087Z,25.04
2022-08-17T06:18:10.069Z,25.22
2022-08-17T06:20:50.423Z,25.41
2022-08-17T06:23:44.244Z,25.54
2022-08-17T06:26:30.284Z,25.63
2022-08-17T06:29:20.322Z,25.74
2022-08-17T06:31:52.779Z,25.89
2022-08-17T06:34:25.285Z,26.04
2022-08-17T06:37:17.395Z,26.18
2022-08-17T06:40:17.078Z,26.34
2022-08-17T06:43:14.002Z,26.56
2022-08-17T06:46:11.707Z,26.72
2022-08-17T06:49:27.109Z,26.77
2022-08-17T06:52:45.457Z,26.88
2022-08-17T06:55:07.335Z,27.09
2022-08-17T06:57:47.804Z,27.32
2022-08-17T07:00:25.481Z,27.46
2022-08-17T07:03:23.806Z,27.60
2022-08-17T07:05:59.747Z,27.70
2022-08-17T07:09:03.969Z,27.91
2022-08-17T07:12:04.679Z,28.08
2022-08-17T07:14:58.309Z,28.11
2022-08-17T07:17:47.484Z,28.16
2022-08-17T07:20:13.027Z,28.25
2022-08-17T07:23:12.447Z,28.40
2022-08-17T07:25:44.965Z,28.61
2022-08-17T07:28:23.219Z,28.84
2022-08-17T07:30:56.350Z,29.04
2022-08-17T07:33:32.411Z,29.11
2022-08-17T07:36:06.999Z,29.23
2022-08-17T07:38:41.060Z,29.31
2022-08-17T07:41:13.551Z,29.40
2022-08-17T07:43:52.322Z,29.56
2022-08-17T07:47:09.035Z,29.65
2022-08-17T07:49:46.435Z,29.69
2022-08-17T07:52:52.604Z,29.60
2022-08-17T07:55:32.977Z,29.55
2022-08-17T07:58:05.804Z,29.80
2022-08-17T08:00:38.489Z,30.09
2022-08-17T08:03:31.467Z,30.25
2022-08-17T08:06:05.598Z,30.18
2022-08-17T08:08:43.669Z,30.16
2022-08-17T08:11:19.034Z,30.19
2022-08-17T08:13:51.746Z,30.19
2022-08-17T08:16:32.150Z,30.23
2022-08-17T08:19:04.562Z,30.38
2022-08-17T08:21:50.634Z,30.63
2022-08-17T08:25:09.533Z,30.86
2022-08-17T08:28:11.582Z,30.89
2022-08-17T08:30:48.729Z,30.95
2022-08-17T08:33:46.809Z,31.12
2022-08-17T08:37:14.574Z,31.39
2022-08-17T08:39:35.759Z,31.72
2022-08-17T08:42:16.555Z,31.86
2022-08-17T08:45:03.534Z,31.61
2022-08-17T08:47:58.371Z,31.34
2022-08-17T08:51:05.521Z,31.30
2022-08-17T08:54:11.789Z,31.30
2022-08-17T08:57:22.137Z,31.04
2022-08-17T08:59:58.592Z,30.79
2022-08-17T09:03:51.222Z,30.73
2022-08-17T09:06:06.928Z,30.73
2022-08-17T09:08:56.105Z,30.76
2022-08-17T09:12:02.254Z,30.75
2022-08-17T09:14:49.225Z,30.85
2022-08-17T09:17:25.521Z,30.82
2022-08-17T09:20:27.472Z,30.77
2022-08-17T09:22:54.611Z,30.61
2022-08-17T09:25:31.771Z,30.61
2022-08-17T09:28:08.600Z,30.81
2022-08-17T09:30:49.052Z,30.98
2022-08-17T09:33:28.117Z,31.05
2022-08-17T09:36:22.405Z,30.92
2022-08-17T09:39:18.526Z,30.74
2022-08-17T09:42:18.256Z,30.73
2022-08-17T09:45:04.522Z,30.57
2022-08-17T09:47:58.655Z,30.34
2022-08-17T09:51:05.300Z,30.30
2022-08-17T09:53:31.687Z,30.50
2022-08-17T09:56:31.385Z,30.80
2022-08-17T09:59:38.427Z,31.04
2022-08-17T10:02:23.187Z,31.54
2022-08-17T10:05:21.980Z,31.95
2022-08-17T10:08:07.542Z,32.32
2022-08-17T10:10:52.413Z,32.63
2022-08-17T10:13:53.211Z,32.68
2022-08-17T10:16:44.360Z,32.87
2022-08-17T10:19:44.081Z,33.25
2022-08-17T10:22:58.023Z,33.57
2022-08-17T10:25:55.182Z,33.88
2022-08-17T10:28:47.937Z,33.82
2022-08-17T10:31:41.010Z,33.94
2022-08-17T10:34:24.786Z,33.81
2022-08-17T10:37:38.682Z,33.43
2022-08-17T10:40:46.055Z,33.33
2022-08-17T10:43:38.673Z,33.56
2022-08-17T10:46:50.627Z,33.74
2022-08-17T10:49:36.772Z,34.05
2022-08-17T10:52:33.194Z,34.35
2022-08-17T10:55:18.881Z,34.36
2022-08-17T10:57:53.526Z,34.29
2022-08-17T11:00:46.556Z,34.34
2022-08-17T11:03:22.267Z,34.42
2022-08-17T11:06:14.333Z,34.29
2022-08-17T11:09:29.009Z,34.34
2022-08-17T11:12:21.459Z,34.26
2022-08-17T11:15:04.740Z,34.28
2022-08-17T11:17:52.209Z,34.40
2022-08-17T11:20:53.495Z,34.60
2022-08-17T11:24:06.012Z,34.90
2022-08-17T11:26:42.052Z,35.02
2022-08-17T11:29:24.921Z,35.11
2022-08-17T11:32:11.138Z,35.16
2022-08-17T11:34:44.755Z,35.24
2022-08-17T11:37:20.452Z,35.30
2022-08-17T11:40:14.562Z,35.11
2022-08-17T11:43:07.811Z,34.80
2022-08-17T11:46:13.944Z,34.67
2022-08-17T11:49:15.073Z,34.72
2022-08-17T11:52:07.988Z,34.57
2022-08-17T11:54:48.586Z,34.40
2022-08-17T11:57:33.624Z,34.40
2022-08-17T12:00:11.552Z,34.35
2022-08-17T12:02:48.982Z,34.24
2022-08-17T12:05:31.005Z,34.26
2022-08-17T12:08:20.997Z,34.18
2022-08-17T12:11:19.099Z,34.01
2022-08-17T12:13:57.792Z,34.14
2022-08-17T12:16:31.632Z,34.12
2022-08-17T12:19:03.864Z,34.10
2022-08-17T12:21:57.922Z,34.00
2022-08-17T12:24:50.683Z,33.85
2022-08-17T12:27:43.197Z,33.79
2022-08-17T12:30:29.899Z,33.62
2022-08-17T12:33:02.991Z,33.63
2022-08-17T12:35:39.080Z,33.71
2022-08-17T12:38:26.769Z,33.88
2022-08-17T12:40:58.782Z,33.89
2022-08-17T12:43:33.800Z,33.76
2022-08-17T12:46:13.020Z,33.47
2022-08-17T12:48:58.720Z,33.28
2022-08-17T12:51:17.444Z,33.13
2022-08-17T12:53:55.819Z,33.06
2022-08-17T12:56:30.049Z,33.02
2022-08-17T12:59:04.745Z,33.12
2022-08-17T13:01:43.292Z,33.08
2022-08-17T13:04:16.378Z,32.97
2022-08-17T13:06:52.742Z,32.91
2022-08-17T13:09:30.957Z,32.89
2022-08-17T13:12:06.011Z,32.82
2022-08-17T13:14:43.200Z,32.69
2022-08-17T13:17:15.645Z,32.67
2022-08-17T13:19:50.685Z,32.59
2022-08-17T13:22:26.744Z,32.47
2022-08-17T13:25:04.673Z,32.38
2022-08-17T13:27:38.495Z,32.27
2022-08-17T13:30:16.176Z,32.14
2022-08-17T13:32:48.842Z,32.00
2022-08-17T13:35:47.108Z,31.90
2022-08-17T13:38:45.094Z,31.83
2022-08-17T13:41:39.040Z,31.72
2022-08-17T13:44:32.979Z,31.60
2022-08-17T13:47:09.421Z,31.49
2022-08-17T13:49:48.772Z,31.31
2022-08-17T13:52:38.863Z,31.22
2022-08-17T13:55:21.378Z,31.11
2022-08-17T13:58:03.682Z,31.01
2022-08-17T14:00:34.261Z,30.93
2022-08-17T14:03:07.692Z,30.84
2022-08-17T14:05:41.214Z,30.73
2022-08-17T14:08:14.894Z,30.65
2022-08-17T14:10:52.537Z,30.55
2022-08-17T14:13:25.988Z,30.49
2022-08-17T14:15:59.599Z,30.48
2022-08-17T14:18:55.992Z,30.46
2022-08-17T14:21:08.561Z,30.41
2022-08-17T14:23:43.593Z,30.35
2022-08-17T14:26:17.894Z,30.27
2022-08-17T14:28:54.606Z,30.21
2022-08-17T14:31:25.568Z,30.17
2022-08-17T14:33:59.218Z,30.14
2022-08-17T14:36:32.279Z,30.07
2022-08-17T14:39:05.439Z,29.99
2022-08-17T14:41:38.488Z,29.93
2022-08-17T14:44:13.621Z,29.88
2022-08-17T14:46:48.075Z,29.84
2022-08-17T14:49:20.862Z,29.80
2022-08-17T14:51:54.168Z,29.75
2022-08-17T14:54:34.214Z,29.66
2022-08-17T14:57:24.678Z,29.58
2022-08-17T14:59:36.111Z,29.52
2022-08-17T15:02:08.710Z,29.45
2022-08-17T15:04:45.541Z,29.37
2022-08-17T15:07:21.766Z,29.30
2022-08-17T15:09:57.001Z,29.27
2022-08-17T15:12:34.000Z,29.20
2022-08-17T15:15:07.354Z,29.15
2022-08-17T15:17:43.865Z,29.10
2022-08-17T15:20:20.918Z,29.04
2022-08-17T15:22:57.573Z,29.01
2022-08-17T15:25:32.107Z,28.96
2022-08-17T15:28:04.881Z,28.92
2022-08-17T15:30:38.531Z,28.85
2022-08-17T15:33:28.371Z,28.81
2022-08-17T15:36:04.968Z,28.75
2022-08-17T15:38:39.476Z,28.68
2022-08-17T15:41:16.617Z,28.61
2022-08-17T15:43:50.373Z,28.52
2022-08-17T15:46:25.839Z,28.46
2022-08-17T15:48:59.260Z,28.44
2022-08-17T15:51:35.421Z,28.41
2022-08-17T15:54:17.099Z,28.35
2022-08-17T15:56:48.397Z,28.30
2022-08-17T15:59:21.106Z,28.23
2022-08-17T16:03:14.149Z,28.18
2022-08-17T16:04:31.802Z,28.13
2022-08-17T16:07:05.946Z,28.05
2022-08-17T16:09:39.189Z,27.98
2022-08-17T16:12:17.780Z,27.90
2022-08-17T16:14:51.879Z,27.83
2022-08-17T16:17:39.883Z,27.78
2022-08-17T16:19:59.249Z,27.74
2022-08-17T16:22:44.974Z,27.69
2022-08-17T16:25:21.515Z,27.65
2022-08-17T16:27:53.955Z,27.59
2022-08-17T16:30:29.589Z,27.54
2022-08-17T16:33:03.218Z,27.51
2022-08-17T16:35:36.306Z,27.47
2022-08-17T16:38:09.822Z,27.43
2022-08-17T16:40:42.907Z,27.42
2022-08-17T16:43:15.472Z,27.39
2022-08-17T16:45:51.951Z,27.33
2022-08-17T16:48:23.461Z,27.29
2022-08-17T16:51:02.871Z,27.25
2022-08-17T16:53:32.000Z,27.22
2022-08-17T16:56:05.965Z,27.19
2022-08-17T16:58:40.319Z,27.13
2022-08-17T17:01:13.010Z,27.07
2022-08-17T17:03:45.924Z,27.02
2022-08-17T17:06:55.319Z,26.99
2022-08-17T17:09:31.813Z,26.96
2022-08-17T17:12:09.806Z,26.92
2022-08-17T17:14:45.926Z,26.88
2022-08-17T17:17:29.096Z,26.82
2022-08-17T17:20:23.117Z,26.77
2022-08-17T17:23:12.749Z,26.70
2022-08-17T17:25:56.124Z,26.63
2022-08-17T17:28:54.458Z,26.56
2022-08-17T17:32:09.234Z,26.52
2022-08-17T17:34:42.443Z,26.48
2022-08-17T17:37:18.349Z,26.44
2022-08-17T17:40:17.369Z,26.41
2022-08-17T17:42:52.531Z,26.38
2022-08-17T17:45:37.261Z,26.36
2022-08-17T17:48:10.098Z,26.33
2022-08-17T17:52:02.846Z,26.31
2022-08-17T17:54:06.159Z,26.29
2022-08-17T17:56:55.799Z,26.26
2022-08-17T17:59:51.474Z,26.23
2022-08-17T18:02:51.238Z,26.20
2022-08-17T18:05:49.465Z,26.14
2022-08-17T18:09:02.210Z,26.11
2022-08-17T18:11:58.997Z,26.07
2022-08-17T18:14:58.743Z,26.03
2022-08-17T18:17:31.391Z,26.01
2022-08-17T18:20:07.246Z,25.99
2022-08-17T18:22:40.631Z,25.96
2022-08-17T18:25:40.003Z,25.92
2022-08-17T18:28:17.733Z,25.90
2022-08-17T18:31:15.005Z,25.87
2022-08-17T18:33:50.521Z,25.85
2022-08-17T18:36:36.585Z,25.81
2022-08-17T18:39:18.880Z,25.77
2022-08-17T18:41:53.444Z,25.75
2022-08-17T18:44:38.144Z,25.73
2022-08-17T18:47:18.243Z,25.71
2022-08-17T18:49:58.242Z,25.70
2022-08-17T18:52:33.598Z,25.67
2022-08-17T18:55:15.978Z,25.64
2022-08-17T18:57:57.925Z,25.60
2022-08-17T19:00:41.532Z,25.56
2022-08-17T19:03:26.162Z,25.52
2022-08-17T19:06:18.081Z,25.50
2022-08-17T19:08:50.697Z,25.46
2022-08-17T19:11:31.125Z,25.39
2022-08-17T19:14:08.918Z,25.39
2022-08-17T19:17:07.281Z,25.39
2022-08-17T19:20:05.715Z,25.35
2022-08-17T19:23:09.592Z,25.31
2022-08-17T19:25:53.443Z,25.27
2022-08-17T19:28:41.041Z,25.21
2022-08-17T19:31:24.708Z,25.16
2022-08-17T19:33:57.434Z,25.11
2022-08-17T19:36:55.423Z,25.05
2022-08-17T19:39:48.222Z,25.05
2022-08-17T19:42:42.190Z,25.02
2022-08-17T19:45:37.955Z,25.01
2022-08-17T19:48:28.256Z,24.95
2022-08-17T19:51:05.578Z,24.93
2022-08-17T19:54:09.549Z,24.89
2022-08-17T19:57:08.420Z,24.89
2022-08-17T20:00:04.610Z,24.89
2022-08-17T20:02:45.105Z,24.85
2022-08-17T20:06:08.597Z,24.80
2022-08-17T20:08:17.880Z,24.78
2022-08-17T20:10:57.632Z,24.74
2022-08-17T20:13:43.170Z,24.70
2022-08-17T20:16:17.627Z,24.66
2022-08-17T20:19:10.371Z,24.61
2022-08-17T20:22:02.530Z,24.58
2022-08-17T20:24:47.280Z,24.56
2022-08-17T20:27:31.466Z,24.54
2022-08-17T20:30:34.808Z,24.52
2022-08-17T20:33:17.119Z,24.48
2022-08-17T20:36:23.838Z,24.48
2022-08-17T20:38:58.517Z,24.49
2022-08-17T20:41:31.705Z,24.46
2022-08-17T20:44:06.243Z,24.43
2022-08-17T20:46:43.564Z,24.43
2022-08-17T20:49:47.909Z,24.41
2022-08-17T20:52:55.756Z,24.41
2022-08-17T20:55:52.394Z,24.40
2022-08-17T20:58:33.853Z,24.37
2022-08-17T21:01:18.143Z,24.32
2022-08-17T21:03:52.060Z,24.29
2022-08-17T21:06:25.595Z,24.29
2022-08-17T21:09:17.085Z,24.20
2022-08-17T21:12:05.619Z,24.20
2022-08-17T21:15:01.248Z,24.17
2022-08-17T21:17:45.706Z,24.14
2022-08-17T21:20:48.914Z,24.09
2022-08-17T21:23:38.396Z,24.05
2022-08-17T21:26:50.590Z,24.02
2022-08-17T21:29:31.020Z,24.00
2022-08-17T21:32:06.945Z,23.97
2022-08-17T21:34:45.362Z,23.92
2022-08-17T21:37:29.879Z,23.91
2022-08-17T21:40:13.965Z,23.89
2022-08-17T21:43:12.134Z,23.87
2022-08-17T21:45:44.998Z,23.84
2022-08-17T21:48:27.550Z,23.81
2022-08-17T21:51:16.670Z,23.81
2022-08-17T21:53:58.771Z,23.78
2022-08-17T21:56:55.099Z,23.75
2022-08-17T21:59:40.293Z,23.72
2022-08-17T22:02:23.043Z,23.71
2022-08-17T22:05:05.206Z,23.69
2022-08-17T22:07:45.382Z,23.68
2022-08-17T22:10:33.019Z,23.67
2022-08-17T22:13:24.364Z,23.64
2022-08-17T22:16:15.585Z,23.58
2022-08-17T22:18:53.706Z,23.58
2022-08-17T22:21:26.681Z,23.56
2022-08-17T22:24:09.411Z,23.56
2022-08-17T22:27:20.112Z,23.57
2022-08-17T22:29:58.084Z,23.55
2022-08-17T22:32:44.226Z,23.55
2022-08-17T22:35:37.199Z,23.54
2022-08-17T22:38:25.734Z,23.53
2022-08-17T22:41:17.416Z,23.50
2022-08-17T22:43:50.941Z,23.45
2022-08-17T22:46:25.023Z,23.41
2022-08-17T22:48:59.877Z,23.39
2022-08-17T22:51:32.662Z,23.35
2022-08-17T22:54:29.508Z,23.33
2022-08-17T22:57:22.468Z,23.30
2022-08-17T22:59:56.396Z,23.28
2022-08-17T23:02:34.739Z,23.27
2022-08-17T23:05:19.042Z,23.24
2022-08-17T23:07:53.527Z,23.20
2022-08-17T23:10:25.488Z,23.19
2022-08-17T23:13:21.534Z,23.15
2022-08-17T23:15:54.323Z,23.11
2022-08-17T23:18:27.837Z,23.09
2022-08-17T23:21:00.554Z,23.08
2022-08-17T23:23:36.076Z,23.07
2022-08-17T23:26:10.721Z,23.06
2022-08-17T23:28:44.177Z,23.05
2022-08-17T23:31:19.038Z,23.02
2022-08-17T23:33:53.034Z,22.99
2022-08-17T23:36:27.329Z,22.95
2022-08-17T23:39:00.504Z,22.99
2022-08-17T23:41:36.464Z,23.00
2022-08-17T23:44:10.093Z,23.00
2022-08-17T23:46:44.494Z,22.99
2022-08-17T23:49:17.176Z,22.98
2022-08-17T23:51:50.185Z,22.99
2022-08-17T23:54:40.191Z,22.95
2022-08-17T23:57:14.069Z,22.94
2022-08-17T23:59:47.054Z,22.92
